createdAt,value
2023-01-17T02:26:49.983Z,1.10
2023-01-17T02:31:50.787Z,4.47
2023-01-17T02:36:49.154Z,2.93
2023-01-17T02:41:44.674Z,4.00
2023-01-17T02:46:47.109Z,3.33
2023-01-17T02:52:06.238Z,4.22
2023-01-17T02:57:12.464Z,3.38
2023-01-17T03:02:19.227Z,2.38
2023-01-17T03:07:19.858Z,3.45
2023-01-17T03:12:13.537Z,6.10
2023-01-17T03:17:06.663Z,2.95
2023-01-17T03:21:59.638Z,7.65
2023-01-17T03:26:52.446Z,4.80
2023-01-17T03:56:06.094Z,1.85
2023-01-17T04:01:00.077Z,2.35
2023-01-17T04:05:54.539Z,1.17
2023-01-17T04:10:47.241Z,1.55
2023-01-17T04:20:36.239Z,2.42
2023-01-17T04:25:30.711Z,6.45
2023-01-17T04:30:20.943Z,3.35
2023-01-17T04:35:12.977Z,2.53
2023-01-17T04:40:04.447Z,4.60
2023-01-17T04:44:58.232Z,6.78
2023-01-17T04:49:49.517Z,6.22
2023-01-17T04:54:42.197Z,9.02
2023-01-17T04:59:33.830Z,5.00
2023-01-17T05:04:29.770Z,1.77
2023-01-17T05:09:21.363Z,3.05
2023-01-17T05:14:13.576Z,4.72
2023-01-17T05:19:05.097Z,2.13
2023-01-17T05:24:02.307Z,4.97
2023-01-17T05:28:52.085Z,1.60
2023-01-17T05:33:41.899Z,3.90
2023-01-17T05:38:32.330Z,4.00
2023-01-17T05:43:30.315Z,7.03
2023-01-17T05:48:23.523Z,8.32
2023-01-17T05:53:25.143Z,2.85
2023-01-17T05:58:21.346Z,1.07
2023-01-17T06:03:25.616Z,3.03
2023-01-17T06:08:20.329Z,3.35
2023-01-17T06:13:12.487Z,3.42
2023-01-17T06:18:07.273Z,9.37
2023-01-17T06:23:16.061Z,6.13
2023-01-17T06:28:10.201Z,2.75
2023-01-17T06:33:05.800Z,3.60
2023-01-17T06:38:07.751Z,7.03
2023-01-17T06:43:03.535Z,5.20
2023-01-17T06:47:53.614Z,3.53
2023-01-17T06:52:43.940Z,2.72
2023-01-17T06:57:41.361Z,1.23
2023-01-17T07:02:34.959Z,3.30
2023-01-17T07:07:33.643Z,3.25
2023-01-17T07:12:26.412Z,1.15
2023-01-17T07:17:30.391Z,8.82
2023-01-17T07:22:21.715Z,2.03
2023-01-17T07:27:12.784Z,2.95
2023-01-17T07:32:03.949Z,1.95
2023-01-17T07:36:57.877Z,3.05
2023-01-17T07:41:49.051Z,6.80
2023-01-17T07:46:39.248Z,6.95
2023-01-17T07:51:43.424Z,3.88
2023-01-17T07:56:37.299Z,6.40
2023-01-17T08:01:30.310Z,2.47
2023-01-17T08:06:24.092Z,4.25
2023-01-17T08:11:17.689Z,3.67
2023-01-17T08:16:13.661Z,2.00
2023-01-17T08:21:04.467Z,3.03
2023-01-17T08:25:54.722Z,6.88
2023-01-17T08:30:44.701Z,6.35
2023-01-17T08:35:37.659Z,6.07
2023-01-17T08:40:30.195Z,7.18
2023-01-17T08:45:21.260Z,7.60
2023-01-17T08:50:15.764Z,13.50
2023-01-17T08:55:12.484Z,6.25
2023-01-17T09:00:07.658Z,16.05
2023-01-17T09:04:58.750Z,22.35
2023-01-17T09:09:52.986Z,13.73
2023-01-17T09:14:48.584Z,16.05
2023-01-17T09:19:42.560Z,13.80
2023-01-17T09:24:32.829Z,15.75
2023-01-17T09:29:23.213Z,6.95
2023-01-17T09:34:19.088Z,10.05
2023-01-17T09:39:11.148Z,12.95
2023-01-17T09:44:09.988Z,5.63
2023-01-17T09:49:09.591Z,12.30
2023-01-17T09:54:04.443Z,13.70
2023-01-17T09:59:08.692Z,13.77
2023-01-17T10:04:15.969Z,13.88
2023-01-17T10:09:23.564Z,15.23
2023-01-17T10:14:37.215Z,14.88
2023-01-17T10:19:44.794Z,12.57
2023-01-17T10:25:01.466Z,14.55
2023-01-17T10:29:54.712Z,17.83
2023-01-17T10:39:43.755Z,14.25
2023-01-17T10:44:42.639Z,9.18
2023-01-17T17:31:53.043Z,1.92
2023-01-17T17:36:54.912Z,2.97
2023-01-17T17:46:40.572Z,7.50
2023-01-17T17:51:32.804Z,9.60
2023-01-17T17:56:26.216Z,12.55
2023-01-17T18:01:16.722Z,12.55
2023-01-17T18:06:11.441Z,12.85
2023-01-17T18:11:07.072Z,13.77
2023-01-17T18:16:10.142Z,12.77
2023-01-17T18:21:11.769Z,8.60
2023-01-17T18:26:02.754Z,11.82
2023-01-17T18:30:53.245Z,6.97
2023-01-17T18:35:55.897Z,11.45
2023-01-17T18:40:48.012Z,12.18
2023-01-17T18:45:38.948Z,13.23
2023-01-17T18:50:33.736Z,8.77
2023-01-17T18:55:32.801Z,9.60
2023-01-17T19:00:27.344Z,11.02
2023-01-17T19:05:22.097Z,12.27
2023-01-17T19:10:14.288Z,13.32
2023-01-17T19:15:10.329Z,11.57
2023-01-17T19:20:00.661Z,16.35
2023-01-17T19:24:53.204Z,10.55
2023-01-17T19:29:43.134Z,13.30
2023-01-17T19:34:36.787Z,13.15
2023-01-17T19:39:30.798Z,12.27
2023-01-17T19:44:21.814Z,13.52
2023-01-17T19:49:13.045Z,15.65
2023-01-17T19:54:08.679Z,12.95
2023-01-17T20:03:57.630Z,15.70
2023-01-17T20:08:49.867Z,14.45
2023-01-17T20:13:45.771Z,12.68
2023-01-17T20:18:38.869Z,13.23
2023-01-17T20:23:28.735Z,16.92
2023-01-17T20:28:19.062Z,13.23
2023-01-17T20:33:16.538Z,15.30
2023-01-17T20:38:11.102Z,15.55
2023-01-17T20:43:02.521Z,12.98
2023-01-17T20:47:54.724Z,11.43
2023-01-17T20:52:49.143Z,10.68
2023-01-17T20:57:42.307Z,14.45
2023-01-17T21:02:33.426Z,12.38
2023-01-17T21:07:27.478Z,13.27
2023-01-17T21:12:23.133Z,15.52
2023-01-17T21:17:16.793Z,16.83
2023-01-17T21:22:07.716Z,16.95
2023-01-17T21:26:57.539Z,13.95
2023-01-17T21:31:51.601Z,15.75
2023-01-17T21:36:46.647Z,14.68
2023-01-17T21:41:44.050Z,15.05
2023-01-17T21:46:35.674Z,18.35
2023-01-17T21:51:50.075Z,14.80
2023-01-17T21:56:52.218Z,14.55
2023-01-17T22:01:42.786Z,15.73
2023-01-17T22:06:40.963Z,13.80
2023-01-17T22:11:34.240Z,14.70
2023-01-17T22:16:27.803Z,16.08
2023-01-17T22:21:21.872Z,14.73
2023-01-17T22:26:15.595Z,15.00
2023-01-17T22:31:15.444Z,16.80
2023-01-17T22:36:07.167Z,11.77
2023-01-17T22:41:07.067Z,12.13
2023-01-17T22:46:05.024Z,11.68
2023-01-17T22:51:02.426Z,10.57
2023-01-17T22:56:02.384Z,13.27
2023-01-17T23:00:53.563Z,8.35
2023-01-17T23:05:47.643Z,16.83
2023-01-17T23:10:51.087Z,8.32
2023-01-17T23:15:54.546Z,9.90
2023-01-17T23:20:50.724Z,10.50
2023-01-17T23:25:42.175Z,9.48
2023-01-17T23:30:37.834Z,10.75
2023-01-17T23:35:31.279Z,9.13
2023-01-17T23:40:25.139Z,10.82
2023-01-17T23:45:16.421Z,8.25
2023-01-17T23:50:08.098Z,11.20
2023-01-17T23:54:58.618Z,12.02
2023-01-17T23:59:52.167Z,13.18
